createdAt,value
2022-07-28T00:03:23.989Z,14.60
2022-07-28T00:07:26.301Z,14.60
2022-07-28T00:11:28.001Z,14.60
2022-07-28T00:15:29.752Z,14.50
2022-07-28T00:19:31.577Z,14.50
2022-07-28T00:23:39.277Z,14.50
2022-07-28T00:27:41.515Z,14.50
2022-07-28T00:31:43.253Z,14.40
2022-07-28T00:35:48.426Z,14.40
2022-07-28T00:39:50.424Z,14.40
2022-07-28T00:43:52.520Z,14.30
2022-07-28T00:47:54.188Z,14.30
2022-07-28T00:51:56.663Z,14.30
2022-07-28T00:56:03.457Z,14.30
2022-07-28T01:00:20.306Z,14.20
2022-07-28T01:04:23.621Z,14.20
2022-07-28T01:08:52.788Z,14.20
2022-07-28T01:13:08.848Z,14.20
2022-07-28T01:17:32.584Z,14.20
2022-07-28T01:21:37.983Z,14.10
2022-07-28T01:26:06.593Z,14.00
2022-07-28T01:30:20.841Z,13.90
2022-07-28T01:34:42.880Z,13.80
2022-07-28T01:38:47.374Z,13.80
2022-07-28T01:42:54.026Z,13.70
2022-07-28T01:46:58.960Z,13.70
2022-07-28T01:51:02.186Z,13.70
2022-07-28T01:55:04.772Z,13.60
2022-07-28T01:59:09.715Z,13.60
2022-07-28T02:03:12.943Z,13.50
2022-07-28T02:07:16.441Z,13.40
2022-07-28T02:11:37.325Z,13.30
2022-07-28T02:15:40.102Z,13.40
2022-07-28T02:19:44.626Z,13.30
2022-07-28T02:23:48.717Z,13.20
2022-07-28T02:28:04.056Z,13.20
2022-07-28T02:32:24.056Z,13.10
2022-07-28T02:36:32.864Z,13.10
2022-07-28T02:40:36.998Z,13.10
2022-07-28T02:44:42.400Z,13.00
2022-07-28T02:48:47.344Z,13.00
2022-07-28T02:52:49.777Z,12.90
2022-07-28T02:56:54.122Z,13.00
2022-07-28T03:00:57.702Z,12.90
2022-07-28T03:05:01.833Z,12.80
2022-07-28T03:09:03.880Z,12.70
2022-07-28T03:13:08.966Z,12.70
2022-07-28T03:17:10.803Z,12.70
2022-07-28T03:21:12.639Z,12.70
2022-07-28T03:25:23.465Z,12.60
2022-07-28T03:29:27.552Z,12.60
2022-07-28T03:33:29.528Z,12.50
2022-07-28T03:37:46.860Z,12.60
2022-07-28T03:41:48.931Z,12.50
2022-07-28T03:45:50.898Z,12.50
2022-07-28T03:49:52.620Z,12.50
2022-07-28T03:53:54.273Z,12.50
2022-07-28T03:57:59.035Z,12.50
2022-07-28T04:02:00.847Z,12.60
2022-07-28T04:06:02.623Z,12.40
2022-07-28T04:10:06.539Z,12.50
2022-07-28T04:14:10.988Z,12.40
2022-07-28T04:18:15.026Z,12.50
2022-07-28T04:22:16.734Z,12.40
2022-07-28T04:26:18.696Z,12.50
2022-07-28T04:30:27.811Z,12.30
2022-07-28T04:34:29.553Z,12.40
2022-07-28T04:38:31.253Z,12.40
2022-07-28T04:42:33.312Z,12.60
2022-07-28T04:46:35.743Z,12.70
2022-07-28T04:50:37.637Z,12.70
2022-07-28T04:54:39.401Z,12.70
2022-07-28T04:58:41.092Z,12.90
2022-07-28T05:02:45.879Z,13.00
2022-07-28T05:06:47.591Z,13.40
2022-07-28T05:10:49.357Z,13.50
2022-07-28T05:14:51.010Z,13.40
2022-07-28T05:18:52.693Z,13.30
2022-07-28T05:23:01.664Z,13.30
2022-07-28T05:27:03.331Z,13.30
2022-07-28T05:31:05.010Z,13.40
2022-07-28T05:35:07.124Z,13.30
2022-07-28T05:39:08.827Z,13.40
2022-07-28T05:43:10.550Z,13.30
2022-07-28T05:47:12.207Z,13.50
2022-07-28T05:51:13.927Z,13.60
2022-07-28T05:55:16.302Z,13.70
2022-07-28T05:59:18.067Z,13.90
2022-07-28T06:03:19.802Z,14.10
2022-07-28T06:07:21.488Z,14.20
2022-07-28T06:11:43.196Z,14.40
2022-07-28T06:15:47.449Z,14.60
2022-07-28T06:19:49.160Z,14.90
2022-07-28T06:23:51.003Z,15.10
2022-07-28T06:27:55.400Z,15.30
2022-07-28T06:31:57.274Z,15.40
2022-07-28T06:35:59.036Z,15.80
2022-07-28T06:40:00.771Z,16.20
2022-07-28T06:44:02.456Z,16.40
2022-07-28T06:48:04.464Z,16.30
2022-07-28T06:52:06.402Z,16.10
2022-07-28T06:56:08.099Z,16.00
2022-07-28T07:00:30.051Z,16.10
2022-07-28T07:04:32.059Z,16.20
2022-07-28T07:08:34.654Z,16.50
2022-07-28T07:12:36.891Z,16.80
2022-07-28T07:16:38.699Z,16.50
2022-07-28T07:20:40.443Z,16.70
2022-07-28T07:24:42.171Z,16.80
2022-07-28T07:28:43.853Z,17.20
2022-07-28T07:32:45.634Z,17.20
2022-07-28T07:36:47.369Z,17.30
2022-07-28T07:40:51.009Z,17.50
2022-07-28T07:44:53.024Z,17.60
2022-07-28T07:48:54.745Z,17.50
2022-07-28T07:52:56.598Z,17.30
2022-07-28T07:56:58.303Z,17.50
2022-07-28T08:01:00.013Z,17.40
2022-07-28T08:05:01.814Z,17.50
2022-07-28T08:09:03.699Z,17.50
2022-07-28T08:13:07.373Z,17.60
2022-07-28T08:17:09.092Z,17.80
2022-07-28T08:21:12.896Z,17.90
2022-07-28T08:25:14.857Z,18.30
2022-07-28T08:29:16.536Z,18.50
2022-07-28T08:33:21.614Z,18.90
2022-07-28T08:37:23.285Z,19.20
2022-07-28T08:41:56.821Z,20.10
2022-07-28T08:46:01.738Z,19.80
2022-07-28T08:50:05.128Z,20.60
2022-07-28T08:54:07.183Z,21.00
2022-07-28T08:58:11.756Z,21.60
2022-07-28T09:02:14.597Z,21.80
2022-07-28T09:06:17.363Z,22.00
2022-07-28T09:10:19.703Z,22.00
2022-07-28T09:14:22.003Z,22.50
2022-07-28T09:18:23.683Z,22.80
2022-07-28T09:22:25.465Z,22.30
2022-07-28T09:26:27.189Z,22.40
2022-07-28T09:30:34.285Z,22.50
2022-07-28T09:34:39.760Z,22.60
2022-07-28T09:38:41.633Z,22.40
2022-07-28T09:42:49.946Z,22.70
2022-07-28T09:46:52.102Z,22.30
2022-07-28T09:51:14.897Z,22.60
2022-07-28T09:55:16.743Z,22.80
2022-07-28T09:59:18.963Z,23.80
2022-07-28T10:03:25.609Z,22.70
2022-07-28T10:07:29.913Z,22.30
2022-07-28T10:11:31.893Z,21.90
2022-07-28T10:15:52.356Z,21.90
2022-07-28T10:19:54.890Z,22.60
2022-07-28T10:24:00.219Z,23.20
2022-07-28T10:28:03.527Z,22.90
2022-07-28T10:32:06.824Z,22.70
2022-07-28T10:36:09.439Z,23.40
2022-07-28T10:40:12.460Z,23.60
2022-07-28T10:44:14.742Z,22.80
2022-07-28T10:48:17.461Z,23.40
2022-07-28T10:52:45.841Z,23.70
2022-07-28T10:56:52.082Z,23.80
2022-07-28T11:00:57.315Z,23.80
2022-07-28T11:05:03.490Z,23.90
2022-07-28T11:09:17.350Z,23.70
2022-07-28T11:13:35.769Z,23.50
2022-07-28T11:17:38.924Z,23.60
2022-07-28T11:22:22.427Z,23.40
2022-07-28T11:26:24.228Z,24.00
2022-07-28T11:30:25.896Z,23.90
2022-07-28T11:34:47.649Z,24.10
2022-07-28T11:39:47.699Z,23.80
2022-07-28T11:43:49.429Z,23.70
2022-07-28T11:48:18.019Z,24.30
2022-07-28T11:52:20.854Z,24.30
2022-07-28T11:56:35.943Z,24.10
2022-07-28T12:00:37.629Z,24.10
2022-07-28T12:04:39.302Z,23.90
2022-07-28T12:08:54.237Z,24.00
2022-07-28T12:12:59.087Z,24.10
2022-07-28T12:17:00.929Z,24.10
2022-07-28T12:21:05.270Z,24.10
2022-07-28T12:25:13.440Z,24.50
2022-07-28T12:29:15.719Z,24.90
2022-07-28T12:33:29.552Z,24.90
2022-07-28T12:37:31.588Z,24.10
2022-07-28T12:41:35.026Z,24.20
2022-07-28T12:45:47.247Z,24.40
2022-07-28T12:50:13.036Z,24.90
2022-07-28T12:54:15.082Z,25.00
2022-07-28T12:58:26.771Z,24.50
2022-07-28T13:02:37.952Z,24.50
2022-07-28T13:06:40.642Z,24.90
2022-07-28T13:11:17.318Z,24.70
2022-07-28T13:15:30.137Z,24.60
2022-07-28T13:19:31.869Z,24.40
2022-07-28T13:23:33.521Z,24.20
2022-07-28T13:27:35.281Z,24.60
2022-07-28T13:31:37.637Z,24.90
2022-07-28T13:35:39.412Z,24.80
2022-07-28T13:39:41.403Z,24.10
2022-07-28T13:43:43.092Z,24.30
2022-07-28T13:47:52.294Z,25.00
2022-07-28T13:51:55.718Z,24.70
2022-07-28T13:55:57.426Z,24.60
2022-07-28T13:59:59.159Z,24.60
2022-07-28T14:04:01.468Z,25.10
2022-07-28T14:08:03.519Z,25.40
2022-07-28T14:12:05.443Z,25.80
2022-07-28T14:16:12.341Z,25.60
2022-07-28T14:20:16.263Z,25.10
2022-07-28T14:24:18.267Z,24.80
2022-07-28T14:28:20.084Z,25.00
2022-07-28T14:32:21.824Z,25.20
2022-07-28T14:36:23.500Z,24.70
2022-07-28T14:40:25.416Z,24.70
2022-07-28T14:44:27.269Z,24.60
2022-07-28T14:48:30.846Z,24.30
2022-07-28T14:52:32.583Z,24.30
2022-07-28T14:56:34.416Z,24.30
2022-07-28T15:00:36.098Z,24.30
2022-07-28T15:04:37.763Z,24.10
2022-07-28T15:08:39.463Z,23.90
2022-07-28T15:12:41.443Z,23.90
2022-07-28T15:16:43.511Z,24.10
2022-07-28T15:20:45.420Z,24.30
2022-07-28T15:24:47.112Z,24.00
2022-07-28T15:28:48.851Z,24.00
2022-07-28T15:32:56.877Z,24.10
2022-07-28T15:36:58.976Z,23.90
2022-07-28T15:41:01.548Z,23.90
2022-07-28T15:45:03.549Z,23.90
2022-07-28T15:49:11.079Z,23.90
2022-07-28T15:53:12.827Z,23.80
2022-07-28T15:57:14.648Z,23.50
2022-07-28T16:01:17.762Z,23.50
2022-07-28T16:05:19.873Z,23.30
2022-07-28T16:09:22.622Z,23.20
2022-07-28T16:13:37.165Z,23.00
2022-07-28T16:17:41.515Z,23.10
2022-07-28T16:21:43.176Z,23.10
2022-07-28T16:25:48.950Z,23.10
2022-07-28T16:29:50.750Z,23.10
2022-07-28T16:33:52.471Z,23.00
2022-07-28T16:37:54.167Z,23.00
2022-07-28T16:41:56.140Z,23.10
2022-07-28T16:45:59.336Z,23.10
2022-07-28T16:50:01.191Z,23.10
2022-07-28T16:54:02.955Z,23.10
2022-07-28T16:58:04.599Z,23.00
2022-07-28T17:02:09.089Z,23.10
2022-07-28T17:06:10.877Z,23.10
2022-07-28T17:10:15.140Z,23.00
2022-07-28T17:14:21.953Z,22.90
2022-07-28T17:18:23.737Z,22.90
2022-07-28T17:22:25.951Z,22.90
2022-07-28T17:27:32.549Z,22.80
2022-07-28T17:30:50.987Z,22.80
2022-07-28T17:34:52.709Z,22.80
2022-07-28T17:38:54.467Z,22.70
2022-07-28T17:42:56.228Z,22.60
2022-07-28T17:46:57.990Z,22.60
2022-07-28T17:50:59.884Z,22.60
2022-07-28T17:55:27.714Z,22.60
2022-07-28T17:59:33.971Z,22.40
2022-07-28T18:03:59.008Z,22.30
2022-07-28T18:08:02.343Z,22.40
2022-07-28T18:12:04.272Z,22.40
2022-07-28T18:16:06.634Z,22.30
2022-07-28T18:20:08.750Z,22.10
2022-07-28T18:24:10.479Z,22.00
2022-07-28T18:28:12.636Z,21.90
2022-07-28T18:32:15.572Z,21.80
2022-07-28T18:36:17.255Z,21.90
2022-07-28T18:40:21.500Z,21.70
2022-07-28T18:44:23.320Z,21.60
2022-07-28T18:48:27.822Z,21.50
2022-07-28T18:52:29.485Z,21.60
2022-07-28T18:56:31.184Z,21.50
2022-07-28T19:00:33.767Z,21.40
2022-07-28T19:04:35.428Z,21.40
2022-07-28T19:08:50.463Z,21.20
2022-07-28T19:12:52.306Z,21.10
2022-07-28T19:16:54.443Z,21.10
2022-07-28T19:20:56.128Z,21.00
2022-07-28T19:24:57.893Z,21.10
2022-07-28T19:28:59.643Z,20.90
2022-07-28T19:33:02.179Z,20.80
2022-07-28T19:37:04.033Z,20.70
2022-07-28T19:41:05.772Z,20.60
2022-07-28T19:45:08.199Z,20.70
2022-07-28T19:49:11.739Z,20.60
2022-07-28T19:53:15.066Z,20.60
2022-07-28T19:57:16.836Z,20.60
2022-07-28T20:01:18.894Z,20.50
2022-07-28T20:05:20.579Z,20.40
2022-07-28T20:09:22.303Z,20.40
2022-07-28T20:13:24.162Z,20.40
2022-07-28T20:17:37.899Z,20.40
2022-07-28T20:21:40.432Z,20.30
2022-07-28T20:25:43.068Z,20.30
2022-07-28T20:29:44.757Z,20.30
2022-07-28T20:33:47.227Z,20.30
2022-07-28T20:37:49.010Z,20.30
2022-07-28T20:41:50.681Z,20.30
2022-07-28T20:45:52.406Z,20.30
2022-07-28T20:49:55.037Z,20.30
2022-07-28T20:53:56.755Z,20.20
2022-07-28T20:57:58.518Z,20.20
2022-07-28T21:02:00.284Z,20.20
2022-07-28T21:06:02.054Z,20.20
2022-07-28T21:10:06.404Z,20.10
2022-07-28T21:14:08.344Z,20.00
2022-07-28T21:18:10.628Z,20.10
2022-07-28T21:22:12.296Z,20.00
2022-07-28T21:26:15.397Z,19.90
2022-07-28T21:30:17.070Z,19.90
2022-07-28T21:34:19.548Z,19.70
2022-07-28T21:38:22.083Z,19.70
2022-07-28T21:42:23.797Z,19.70
2022-07-28T21:46:26.397Z,19.70
2022-07-28T21:50:28.180Z,19.60
2022-07-28T21:54:29.920Z,19.60
2022-07-28T21:58:31.568Z,19.60
2022-07-28T22:02:33.276Z,19.50
2022-07-28T22:06:35.892Z,19.60
2022-07-28T22:10:37.659Z,19.50
2022-07-28T22:14:39.413Z,19.50
2022-07-28T22:18:41.288Z,19.50
2022-07-28T22:22:43.109Z,19.40
2022-07-28T22:26:44.773Z,19.40
2022-07-28T22:30:46.487Z,19.40
2022-07-28T22:34:48.231Z,19.30
2022-07-28T22:38:49.988Z,19.30
2022-07-28T22:42:51.728Z,19.20
2022-07-28T22:46:53.435Z,19.10
2022-07-28T22:50:55.209Z,19.10
2022-07-28T22:54:57.654Z,19.00
2022-07-28T22:58:59.341Z,19.10
2022-07-28T23:03:01.078Z,19.10
2022-07-28T23:07:03.801Z,19.00
2022-07-28T23:11:05.935Z,19.10
2022-07-28T23:15:08.162Z,19.00
2022-07-28T23:19:09.864Z,18.90
2022-07-28T23:23:12.513Z,18.90
2022-07-28T23:27:14.178Z,18.90
2022-07-28T23:31:15.880Z,18.90
2022-07-28T23:35:17.906Z,18.80
2022-07-28T23:39:19.592Z,18.80
2022-07-28T23:43:21.272Z,18.80
2022-07-28T23:47:22.971Z,18.70
2022-07-28T23:51:46.981Z,18.70
2022-07-28T23:55:46.337Z,18.70
2022-07-28T23:59:48.063Z,18.70
